sensor_id;sensor_type;location;lat;lon;timestamp;temperature;humidity
21559;DHT22;10940;48.890;8.240;2023-10-08T00:00:48;14.00;99.90
21559;DHT22;10940;48.890;8.240;2023-10-08T00:03:19;14.00;99.90
21559;DHT22;10940;48.890;8.240;2023-10-08T00:05:46;14.10;99.90
21559;DHT22;10940;48.890;8.240;2023-10-08T00:08:12;14.10;99.90
21559;DHT22;10940;48.890;8.240;2023-10-08T00:10:40;14.00;99.90
21559;DHT22;10940;48.890;8.240;2023-10-08T00:13:14;14.00;99.90
21559;DHT22;10940;48.890;8.240;2023-10-08T00:15:44;14.10;99.90
21559;DHT22;10940;48.890;8.240;2023-10-08T00:18:20;14.00;99.90
21559;DHT22;10940;48.890;8.240;2023-10-08T00:20:47;14.10;99.90
21559;DHT22;10940;48.890;8.240;2023-10-08T00:23:46;14.00;99.90
21559;DHT22;10940;48.890;8.240;2023-10-08T00:26:18;14.00;99.90
21559;DHT22;10940;48.890;8.240;2023-10-08T00:28:55;14.00;99.90
21559;DHT22;10940;48.890;8.240;2023-10-08T00:31:21;14.00;99.90
21559;DHT22;10940;48.890;8.240;2023-10-08T00:33:51;14.00;99.90
21559;DHT22;10940;48.890;8.240;2023-10-08T00:36:17;14.00;99.90
21559;DHT22;10940;48.890;8.240;2023-10-08T00:38:45;14.00;99.90
21559;DHT22;10940;48.890;8.240;2023-10-08T00:41:14;14.00;99.90
21559;DHT22;10940;48.890;8.240;2023-10-08T00:43:47;14.00;99.90
21559;DHT22;10940;48.890;8.240;2023-10-08T00:46:12;14.00;99.90
21559;DHT22;10940;48.890;8.240;2023-10-08T00:48:50;14.00;99.90
21559;DHT22;10940;48.890;8.240;2023-10-08T00:51:23;14.00;99.90
21559;DHT22;10940;48.890;8.240;2023-10-08T00:53:59;14.00;99.90
21559;DHT22;10940;48.890;8.240;2023-10-08T00:56:32;14.00;99.90
21559;DHT22;10940;48.890;8.240;2023-10-08T00:59:33;14.00;99.90
21559;DHT22;10940;48.890;8.240;2023-10-08T01:02:10;14.00;99.90
21559;DHT22;10940;48.890;8.240;2023-10-08T01:04:40;14.00;99.90
21559;DHT22;10940;48.890;8.240;2023-10-08T01:07:10;13.90;99.90
21559;DHT22;10940;48.890;8.240;2023-10-08T01:09:42;13.90;99.90
21559;DHT22;10940;48.890;8.240;2023-10-08T01:12:21;13.90;99.90
21559;DHT22;10940;48.890;8.240;2023-10-08T01:14:52;13.90;99.90
21559;DHT22;10940;48.890;8.240;2023-10-08T01:17:30;13.90;99.90
21559;DHT22;10940;48.890;8.240;2023-10-08T01:19:58;13.80;99.90
21559;DHT22;10940;48.890;8.240;2023-10-08T01:22:34;13.80;99.90
21559;DHT22;10940;48.890;8.240;2023-10-08T01:25:00;13.80;99.90
21559;DHT22;10940;48.890;8.240;2023-10-08T01:27:30;13.70;99.90
21559;DHT22;10940;48.890;8.240;2023-10-08T01:29:59;13.70;99.90
21559;DHT22;10940;48.890;8.240;2023-10-08T01:32:35;13.70;99.90
21559;DHT22;10940;48.890;8.240;2023-10-08T01:35:02;13.60;99.90
21559;DHT22;10940;48.890;8.240;2023-10-08T01:37:30;13.60;99.90
21559;DHT22;10940;48.890;8.240;2023-10-08T01:39:59;13.60;99.90
21559;DHT22;10940;48.890;8.240;2023-10-08T01:42:27;13.50;99.90
21559;DHT22;10940;48.890;8.240;2023-10-08T01:44:54;13.50;99.90
21559;DHT22;10940;48.890;8.240;2023-10-08T01:47:21;13.40;99.90
21559;DHT22;10940;48.890;8.240;2023-10-08T01:49:51;13.40;99.90
21559;DHT22;10940;48.890;8.240;2023-10-08T01:52:23;13.40;99.90
21559;DHT22;10940;48.890;8.240;2023-10-08T01:54:49;13.30;99.90
21559;DHT22;10940;48.890;8.240;2023-10-08T01:57:16;13.30;99.90
21559;DHT22;10940;48.890;8.240;2023-10-08T01:59:45;13.30;99.90
21559;DHT22;10940;48.890;8.240;2023-10-08T02:02:11;13.20;99.90
21559;DHT22;10940;48.890;8.240;2023-10-08T02:04:38;13.20;99.90
21559;DHT22;10940;48.890;8.240;2023-10-08T02:07:04;13.20;99.90
21559;DHT22;10940;48.890;8.240;2023-10-08T02:09:33;13.20;99.90
21559;DHT22;10940;48.890;8.240;2023-10-08T02:11:59;13.20;99.90
21559;DHT22;10940;48.890;8.240;2023-10-08T02:14:24;13.10;99.90
21559;DHT22;10940;48.890;8.240;2023-10-08T02:16:50;13.10;99.90
21559;DHT22;10940;48.890;8.240;2023-10-08T02:19:22;13.10;99.90
21559;DHT22;10940;48.890;8.240;2023-10-08T02:21:53;13.00;99.90
21559;DHT22;10940;48.890;8.240;2023-10-08T02:24:20;13.00;99.90
21559;DHT22;10940;48.890;8.240;2023-10-08T02:26:50;13.00;99.90
21559;DHT22;10940;48.890;8.240;2023-10-08T02:29:16;13.00;99.90
21559;DHT22;10940;48.890;8.240;2023-10-08T02:31:42;13.00;99.90
21559;DHT22;10940;48.890;8.240;2023-10-08T02:34:09;13.00;99.90
21559;DHT22;10940;48.890;8.240;2023-10-08T02:36:36;13.00;99.90
21559;DHT22;10940;48.890;8.240;2023-10-08T02:39:04;12.90;99.90
21559;DHT22;10940;48.890;8.240;2023-10-08T02:41:43;13.00;99.90
21559;DHT22;10940;48.890;8.240;2023-10-08T02:44:13;13.00;99.90
21559;DHT22;10940;48.890;8.240;2023-10-08T02:46:43;13.00;99.90
21559;DHT22;10940;48.890;8.240;2023-10-08T02:49:11;13.00;99.90
21559;DHT22;10940;48.890;8.240;2023-10-08T02:51:38;13.00;99.90
21559;DHT22;10940;48.890;8.240;2023-10-08T02:54:05;12.90;99.90
21559;DHT22;10940;48.890;8.240;2023-10-08T02:56:32;12.90;99.90
21559;DHT22;10940;48.890;8.240;2023-10-08T02:58:58;12.90;99.90
21559;DHT22;10940;48.890;8.240;2023-10-08T03:01:25;12.90;99.90
21559;DHT22;10940;48.890;8.240;2023-10-08T03:03:51;12.90;99.90
21559;DHT22;10940;48.890;8.240;2023-10-08T03:06:27;12.80;99.90
21559;DHT22;10940;48.890;8.240;2023-10-08T03:08:57;12.70;99.90
21559;DHT22;10940;48.890;8.240;2023-10-08T03:11:29;12.70;99.90
21559;DHT22;10940;48.890;8.240;2023-10-08T03:13:56;12.60;99.90
21559;DHT22;10940;48.890;8.240;2023-10-08T03:16:22;12.50;99.90
21559;DHT22;10940;48.890;8.240;2023-10-08T03:18:53;12.50;99.90
21559;DHT22;10940;48.890;8.240;2023-10-08T03:21:20;12.50;99.90
21559;DHT22;10940;48.890;8.240;2023-10-08T03:23:49;12.40;99.90
21559;DHT22;10940;48.890;8.240;2023-10-08T03:26:17;12.40;99.90
21559;DHT22;10940;48.890;8.240;2023-10-08T03:28:59;12.40;99.90
21559;DHT22;10940;48.890;8.240;2023-10-08T03:31:25;12.40;99.90
21559;DHT22;10940;48.890;8.240;2023-10-08T03:34:29;12.40;99.90
21559;DHT22;10940;48.890;8.240;2023-10-08T03:36:59;12.50;99.90
21559;DHT22;10940;48.890;8.240;2023-10-08T03:39:31;12.50;99.90
21559;DHT22;10940;48.890;8.240;2023-10-08T03:42:19;12.60;99.90
21559;DHT22;10940;48.890;8.240;2023-10-08T03:44:46;12.60;99.90
21559;DHT22;10940;48.890;8.240;2023-10-08T03:47:16;12.50;99.90
21559;DHT22;10940;48.890;8.240;2023-10-08T03:49:46;12.60;99.90
21559;DHT22;10940;48.890;8.240;2023-10-08T03:52:16;12.60;99.90
21559;DHT22;10940;48.890;8.240;2023-10-08T03:54:42;12.60;99.90
21559;DHT22;10940;48.890;8.240;2023-10-08T03:57:14;12.60;99.90
21559;DHT22;10940;48.890;8.240;2023-10-08T03:59:45;12.60;99.90
21559;DHT22;10940;48.890;8.240;2023-10-08T04:02:14;12.60;99.90
21559;DHT22;10940;48.890;8.240;2023-10-08T04:04:43;12.60;99.90
21559;DHT22;10940;48.890;8.240;2023-10-08T04:07:23;12.60;99.90
21559;DHT22;10940;48.890;8.240;2023-10-08T04:09:59;12.60;99.90
21559;DHT22;10940;48.890;8.240;2023-10-08T04:12:33;12.60;99.90
21559;DHT22;10940;48.890;8.240;2023-10-08T04:15:03;12.60;99.90
21559;DHT22;10940;48.890;8.240;2023-10-08T04:17:33;12.50;99.90
21559;DHT22;10940;48.890;8.240;2023-10-08T04:20:12;12.60;99.90
21559;DHT22;10940;48.890;8.240;2023-10-08T04:23:01;12.50;99.90
21559;DHT22;10940;48.890;8.240;2023-10-08T04:25:27;12.50;99.90
21559;DHT22;10940;48.890;8.240;2023-10-08T04:27:54;12.60;99.90
21559;DHT22;10940;48.890;8.240;2023-10-08T04:30:24;12.50;99.90
21559;DHT22;10940;48.890;8.240;2023-10-08T04:32:58;12.40;99.90
21559;DHT22;10940;48.890;8.240;2023-10-08T04:35:23;12.40;99.90
21559;DHT22;10940;48.890;8.240;2023-10-08T04:37:52;12.30;99.90
21559;DHT22;10940;48.890;8.240;2023-10-08T04:40:18;12.20;99.90
21559;DHT22;10940;48.890;8.240;2023-10-08T04:42:48;12.40;99.90
21559;DHT22;10940;48.890;8.240;2023-10-08T04:45:14;12.30;99.90
21559;DHT22;10940;48.890;8.240;2023-10-08T04:47:40;12.30;99.90
21559;DHT22;10940;48.890;8.240;2023-10-08T04:50:08;12.30;99.90
21559;DHT22;10940;48.890;8.240;2023-10-08T04:52:40;12.30;99.90
21559;DHT22;10940;48.890;8.240;2023-10-08T04:55:11;12.30;99.90
21559;DHT22;10940;48.890;8.240;2023-10-08T04:57:46;12.30;99.90
21559;DHT22;10940;48.890;8.240;2023-10-08T05:00:11;12.30;99.90
21559;DHT22;10940;48.890;8.240;2023-10-08T05:02:41;12.20;99.90
21559;DHT22;10940;48.890;8.240;2023-10-08T05:05:15;12.10;99.90
21559;DHT22;10940;48.890;8.240;2023-10-08T05:07:41;12.10;99.90
21559;DHT22;10940;48.890;8.240;2023-10-08T05:10:13;12.10;99.90
21559;DHT22;10940;48.890;8.240;2023-10-08T05:12:57;12.00;99.90
21559;DHT22;10940;48.890;8.240;2023-10-08T05:15:29;12.00;99.90
21559;DHT22;10940;48.890;8.240;2023-10-08T05:18:23;11.90;99.90
21559;DHT22;10940;48.890;8.240;2023-10-08T05:21:03;12.00;99.90
21559;DHT22;10940;48.890;8.240;2023-10-08T05:23:48;11.90;99.90
21559;DHT22;10940;48.890;8.240;2023-10-08T05:26:35;11.90;99.90
21559;DHT22;10940;48.890;8.240;2023-10-08T05:29:08;11.90;99.90
21559;DHT22;10940;48.890;8.240;2023-10-08T05:31:52;11.80;99.90
21559;DHT22;10940;48.890;8.240;2023-10-08T05:34:36;11.80;99.90
21559;DHT22;10940;48.890;8.240;2023-10-08T05:37:08;11.70;99.90
21559;DHT22;10940;48.890;8.240;2023-10-08T05:39:33;11.70;99.90
21559;DHT22;10940;48.890;8.240;2023-10-08T05:42:05;11.70;99.90
21559;DHT22;10940;48.890;8.240;2023-10-08T05:44:41;11.70;99.90
21559;DHT22;10940;48.890;8.240;2023-10-08T05:47:13;11.70;99.90
21559;DHT22;10940;48.890;8.240;2023-10-08T05:49:41;11.70;99.90
21559;DHT22;10940;48.890;8.240;2023-10-08T05:52:20;11.70;99.90
21559;DHT22;10940;48.890;8.240;2023-10-08T05:55:06;11.70;99.90
21559;DHT22;10940;48.890;8.240;2023-10-08T05:57:41;11.70;99.90
21559;DHT22;10940;48.890;8.240;2023-10-08T06:00:12;11.70;99.90
21559;DHT22;10940;48.890;8.240;2023-10-08T06:02:43;11.70;99.90
21559;DHT22;10940;48.890;8.240;2023-10-08T06:05:12;11.80;99.90
21559;DHT22;10940;48.890;8.240;2023-10-08T06:07:50;11.80;99.90
21559;DHT22;10940;48.890;8.240;2023-10-08T06:10:22;11.80;99.90
21559;DHT22;10940;48.890;8.240;2023-10-08T06:12:58;11.90;99.90
21559;DHT22;10940;48.890;8.240;2023-10-08T06:18:20;12.00;99.90
21559;DHT22;10940;48.890;8.240;2023-10-08T06:20:51;12.00;99.90
21559;DHT22;10940;48.890;8.240;2023-10-08T06:23:20;12.10;99.90
21559;DHT22;10940;48.890;8.240;2023-10-08T06:25:52;12.10;99.90
21559;DHT22;10940;48.890;8.240;2023-10-08T06:28:31;12.20;99.90
21559;DHT22;10940;48.890;8.240;2023-10-08T06:31:00;12.20;99.90
21559;DHT22;10940;48.890;8.240;2023-10-08T06:33:27;12.20;99.90
21559;DHT22;10940;48.890;8.240;2023-10-08T06:36:05;12.30;99.90
21559;DHT22;10940;48.890;8.240;2023-10-08T06:38:47;12.30;99.90
21559;DHT22;10940;48.890;8.240;2023-10-08T06:41:16;12.50;99.90
21559;DHT22;10940;48.890;8.240;2023-10-08T06:43:49;12.50;99.90
21559;DHT22;10940;48.890;8.240;2023-10-08T06:46:16;12.50;99.90
21559;DHT22;10940;48.890;8.240;2023-10-08T06:48:45;12.60;99.90
21559;DHT22;10940;48.890;8.240;2023-10-08T06:51:12;12.60;99.90
21559;DHT22;10940;48.890;8.240;2023-10-08T06:53:48;12.60;99.90
21559;DHT22;10940;48.890;8.240;2023-10-08T06:56:14;12.70;99.90
21559;DHT22;10940;48.890;8.240;2023-10-08T06:58:41;12.70;99.90
21559;DHT22;10940;48.890;8.240;2023-10-08T07:01:20;12.80;99.90
21559;DHT22;10940;48.890;8.240;2023-10-08T07:03:54;12.90;99.90
21559;DHT22;10940;48.890;8.240;2023-10-08T07:06:29;13.00;99.90
21559;DHT22;10940;48.890;8.240;2023-10-08T07:09:00;13.10;99.90
21559;DHT22;10940;48.890;8.240;2023-10-08T07:11:34;13.20;99.90
21559;DHT22;10940;48.890;8.240;2023-10-08T07:14:01;13.20;99.90
21559;DHT22;10940;48.890;8.240;2023-10-08T07:16:27;13.20;99.90
21559;DHT22;10940;48.890;8.240;2023-10-08T07:18:54;13.40;99.90
21559;DHT22;10940;48.890;8.240;2023-10-08T07:21:27;13.40;99.90
21559;DHT22;10940;48.890;8.240;2023-10-08T07:24:15;13.50;99.90
21559;DHT22;10940;48.890;8.240;2023-10-08T07:26:42;13.50;99.90
21559;DHT22;10940;48.890;8.240;2023-10-08T07:29:13;13.60;99.90
21559;DHT22;10940;48.890;8.240;2023-10-08T07:31:43;13.70;99.90
21559;DHT22;10940;48.890;8.240;2023-10-08T07:34:13;13.80;99.90
21559;DHT22;10940;48.890;8.240;2023-10-08T07:36:44;13.80;99.90
21559;DHT22;10940;48.890;8.240;2023-10-08T07:39:10;13.90;99.90
21559;DHT22;10940;48.890;8.240;2023-10-08T07:41:54;13.90;99.90
21559;DHT22;10940;48.890;8.240;2023-10-08T07:44:21;14.00;99.90
21559;DHT22;10940;48.890;8.240;2023-10-08T07:46:49;14.00;99.90
21559;DHT22;10940;48.890;8.240;2023-10-08T07:49:15;14.10;99.90
21559;DHT22;10940;48.890;8.240;2023-10-08T07:51:40;14.20;99.90
21559;DHT22;10940;48.890;8.240;2023-10-08T07:54:06;14.30;99.90
21559;DHT22;10940;48.890;8.240;2023-10-08T07:56:35;14.40;99.90
21559;DHT22;10940;48.890;8.240;2023-10-08T07:59:02;14.60;99.90
21559;DHT22;10940;48.890;8.240;2023-10-08T08:01:34;14.70;99.90
21559;DHT22;10940;48.890;8.240;2023-10-08T08:04:00;14.80;99.90
21559;DHT22;10940;48.890;8.240;2023-10-08T08:06:25;14.90;99.90
21559;DHT22;10940;48.890;8.240;2023-10-08T08:08:51;15.00;99.90
21559;DHT22;10940;48.890;8.240;2023-10-08T08:11:16;15.10;99.90
21559;DHT22;10940;48.890;8.240;2023-10-08T08:13:46;15.20;99.90
21559;DHT22;10940;48.890;8.240;2023-10-08T08:16:12;15.40;99.90
21559;DHT22;10940;48.890;8.240;2023-10-08T08:18:48;15.50;99.90
21559;DHT22;10940;48.890;8.240;2023-10-08T08:21:25;15.60;99.90
21559;DHT22;10940;48.890;8.240;2023-10-08T08:23:51;15.80;99.90
21559;DHT22;10940;48.890;8.240;2023-10-08T08:26:20;15.90;99.90
21559;DHT22;10940;48.890;8.240;2023-10-08T08:28:54;16.00;99.90
21559;DHT22;10940;48.890;8.240;2023-10-08T08:31:20;16.10;99.90
21559;DHT22;10940;48.890;8.240;2023-10-08T08:33:46;16.10;99.90
21559;DHT22;10940;48.890;8.240;2023-10-08T08:36:20;16.20;99.90
21559;DHT22;10940;48.890;8.240;2023-10-08T08:38:49;16.40;99.90
21559;DHT22;10940;48.890;8.240;2023-10-08T08:41:16;16.40;99.90
21559;DHT22;10940;48.890;8.240;2023-10-08T08:43:47;16.50;99.90
21559;DHT22;10940;48.890;8.240;2023-10-08T08:46:14;16.50;99.90
21559;DHT22;10940;48.890;8.240;2023-10-08T08:48:43;16.60;99.90
21559;DHT22;10940;48.890;8.240;2023-10-08T08:51:12;16.70;99.90
21559;DHT22;10940;48.890;8.240;2023-10-08T08:53:39;16.80;99.90
21559;DHT22;10940;48.890;8.240;2023-10-08T08:56:08;16.90;99.90
21559;DHT22;10940;48.890;8.240;2023-10-08T08:58:38;17.00;99.90
21559;DHT22;10940;48.890;8.240;2023-10-08T09:01:06;17.20;99.90
21559;DHT22;10940;48.890;8.240;2023-10-08T09:03:34;17.30;99.90
21559;DHT22;10940;48.890;8.240;2023-10-08T09:06:00;17.40;99.90
21559;DHT22;10940;48.890;8.240;2023-10-08T09:08:33;17.50;99.90
21559;DHT22;10940;48.890;8.240;2023-10-08T09:10:59;17.70;99.90
21559;DHT22;10940;48.890;8.240;2023-10-08T09:13:31;17.70;99.90
21559;DHT22;10940;48.890;8.240;2023-10-08T09:16:02;17.80;99.90
21559;DHT22;10940;48.890;8.240;2023-10-08T09:18:29;17.90;99.90
21559;DHT22;10940;48.890;8.240;2023-10-08T09:21:10;18.00;99.90
21559;DHT22;10940;48.890;8.240;2023-10-08T09:23:39;18.10;99.90
21559;DHT22;10940;48.890;8.240;2023-10-08T09:26:09;18.20;99.90
21559;DHT22;10940;48.890;8.240;2023-10-08T09:28:34;18.40;99.90
21559;DHT22;10940;48.890;8.240;2023-10-08T09:31:03;18.40;99.90
21559;DHT22;10940;48.890;8.240;2023-10-08T09:33:30;18.50;99.90
21559;DHT22;10940;48.890;8.240;2023-10-08T09:35:56;18.50;99.90
21559;DHT22;10940;48.890;8.240;2023-10-08T09:38:28;18.70;99.90
21559;DHT22;10940;48.890;8.240;2023-10-08T09:40:55;18.70;99.90
21559;DHT22;10940;48.890;8.240;2023-10-08T09:43:22;18.70;99.90
21559;DHT22;10940;48.890;8.240;2023-10-08T09:45:55;18.70;99.90
21559;DHT22;10940;48.890;8.240;2023-10-08T09:48:25;18.80;99.90
21559;DHT22;10940;48.890;8.240;2023-10-08T09:50:53;18.90;99.90
21559;DHT22;10940;48.890;8.240;2023-10-08T09:54:28;19.00;99.90
21559;DHT22;10940;48.890;8.240;2023-10-08T09:56:22;19.00;99.90
21559;DHT22;10940;48.890;8.240;2023-10-08T09:58:50;19.10;99.90
21559;DHT22;10940;48.890;8.240;2023-10-08T10:01:18;19.20;99.90
21559;DHT22;10940;48.890;8.240;2023-10-08T10:03:45;19.30;99.90
21559;DHT22;10940;48.890;8.240;2023-10-08T10:06:15;19.40;99.90
21559;DHT22;10940;48.890;8.240;2023-10-08T10:08:43;19.40;99.90
21559;DHT22;10940;48.890;8.240;2023-10-08T10:11:09;19.50;99.90
21559;DHT22;10940;48.890;8.240;2023-10-08T10:13:42;19.60;99.90
21559;DHT22;10940;48.890;8.240;2023-10-08T10:16:10;19.70;99.90
21559;DHT22;10940;48.890;8.240;2023-10-08T10:18:36;19.80;99.90
21559;DHT22;10940;48.890;8.240;2023-10-08T10:23:41;20.00;99.90
21559;DHT22;10940;48.890;8.240;2023-10-08T10:26:29;20.10;99.90
21559;DHT22;10940;48.890;8.240;2023-10-08T10:29:25;20.30;99.90
21559;DHT22;10940;48.890;8.240;2023-10-08T10:31:53;20.40;99.90
21559;DHT22;10940;48.890;8.240;2023-10-08T10:34:27;20.50;99.90
21559;DHT22;10940;48.890;8.240;2023-10-08T10:36:55;20.70;99.90
21559;DHT22;10940;48.890;8.240;2023-10-08T10:39:22;20.70;99.90
21559;DHT22;10940;48.890;8.240;2023-10-08T10:42:00;20.90;99.90
21559;DHT22;10940;48.890;8.240;2023-10-08T10:44:33;21.00;99.90
21559;DHT22;10940;48.890;8.240;2023-10-08T10:47:02;21.00;99.90
21559;DHT22;10940;48.890;8.240;2023-10-08T10:49:50;21.00;99.90
21559;DHT22;10940;48.890;8.240;2023-10-08T10:52:22;21.20;99.90
21559;DHT22;10940;48.890;8.240;2023-10-08T10:55:03;21.30;99.90
21559;DHT22;10940;48.890;8.240;2023-10-08T10:57:51;21.30;99.90
21559;DHT22;10940;48.890;8.240;2023-10-08T11:00:37;21.40;99.90
21559;DHT22;10940;48.890;8.240;2023-10-08T11:03:04;21.60;99.90
21559;DHT22;10940;48.890;8.240;2023-10-08T11:05:37;21.60;99.90
21559;DHT22;10940;48.890;8.240;2023-10-08T11:08:05;21.80;99.90
21559;DHT22;10940;48.890;8.240;2023-10-08T11:10:36;21.80;99.90
21559;DHT22;10940;48.890;8.240;2023-10-08T11:13:05;21.90;99.90
21559;DHT22;10940;48.890;8.240;2023-10-08T11:15:40;22.00;99.90
21559;DHT22;10940;48.890;8.240;2023-10-08T11:18:13;22.10;99.90
21559;DHT22;10940;48.890;8.240;2023-10-08T11:20:43;22.10;99.90
21559;DHT22;10940;48.890;8.240;2023-10-08T11:26:00;22.40;99.90
21559;DHT22;10940;48.890;8.240;2023-10-08T11:28:37;22.50;99.90
21559;DHT22;10940;48.890;8.240;2023-10-08T11:31:16;22.50;99.90
21559;DHT22;10940;48.890;8.240;2023-10-08T11:33:45;22.60;99.90
21559;DHT22;10940;48.890;8.240;2023-10-08T11:36:21;22.70;99.90
21559;DHT22;10940;48.890;8.240;2023-10-08T11:38:54;22.70;99.90
21559;DHT22;10940;48.890;8.240;2023-10-08T11:41:26;22.80;99.90
21559;DHT22;10940;48.890;8.240;2023-10-08T11:43:54;22.80;99.90
21559;DHT22;10940;48.890;8.240;2023-10-08T11:46:28;22.80;99.90
21559;DHT22;10940;48.890;8.240;2023-10-08T11:49:20;22.90;99.90
21559;DHT22;10940;48.890;8.240;2023-10-08T11:51:51;22.90;99.90
21559;DHT22;10940;48.890;8.240;2023-10-08T11:54:21;23.00;99.90
21559;DHT22;10940;48.890;8.240;2023-10-08T11:56:48;23.00;99.90
21559;DHT22;10940;48.890;8.240;2023-10-08T11:59:14;23.00;99.90
21559;DHT22;10940;48.890;8.240;2023-10-08T12:01:43;23.10;99.90
21559;DHT22;10940;48.890;8.240;2023-10-08T12:04:10;23.20;99.90
21559;DHT22;10940;48.890;8.240;2023-10-08T12:06:41;23.20;99.90
21559;DHT22;10940;48.890;8.240;2023-10-08T12:09:15;23.20;99.90
21559;DHT22;10940;48.890;8.240;2023-10-08T12:11:41;23.20;99.90
21559;DHT22;10940;48.890;8.240;2023-10-08T12:14:08;23.30;99.90
21559;DHT22;10940;48.890;8.240;2023-10-08T12:16:34;23.40;99.90
21559;DHT22;10940;48.890;8.240;2023-10-08T12:19:04;23.50;99.90
21559;DHT22;10940;48.890;8.240;2023-10-08T12:21:41;23.60;99.90
21559;DHT22;10940;48.890;8.240;2023-10-08T12:24:07;23.60;99.90
21559;DHT22;10940;48.890;8.240;2023-10-08T12:26:43;23.70;99.90
21559;DHT22;10940;48.890;8.240;2023-10-08T12:29:12;23.80;99.90
21559;DHT22;10940;48.890;8.240;2023-10-08T12:31:42;23.80;99.90
21559;DHT22;10940;48.890;8.240;2023-10-08T12:34:15;23.80;99.90
21559;DHT22;10940;48.890;8.240;2023-10-08T12:36:42;23.80;99.90
21559;DHT22;10940;48.890;8.240;2023-10-08T12:39:08;23.90;99.90
21559;DHT22;10940;48.890;8.240;2023-10-08T12:41:36;23.90;99.90
21559;DHT22;10940;48.890;8.240;2023-10-08T12:44:06;24.00;99.90
21559;DHT22;10940;48.890;8.240;2023-10-08T12:46:33;24.10;99.90
21559;DHT22;10940;48.890;8.240;2023-10-08T12:49:00;24.20;99.90
21559;DHT22;10940;48.890;8.240;2023-10-08T12:51:28;24.20;99.90
21559;DHT22;10940;48.890;8.240;2023-10-08T12:53:58;24.30;99.90
21559;DHT22;10940;48.890;8.240;2023-10-08T12:56:36;24.30;99.90
21559;DHT22;10940;48.890;8.240;2023-10-08T12:59:05;24.40;99.90
21559;DHT22;10940;48.890;8.240;2023-10-08T13:01:36;24.40;99.90
21559;DHT22;10940;48.890;8.240;2023-10-08T13:04:06;24.40;99.90
21559;DHT22;10940;48.890;8.240;2023-10-08T13:06:34;24.40;99.90
21559;DHT22;10940;48.890;8.240;2023-10-08T13:09:03;24.50;99.90
21559;DHT22;10940;48.890;8.240;2023-10-08T13:11:35;24.50;99.90
21559;DHT22;10940;48.890;8.240;2023-10-08T13:14:04;24.60;99.90
21559;DHT22;10940;48.890;8.240;2023-10-08T13:16:30;24.60;99.90
21559;DHT22;10940;48.890;8.240;2023-10-08T13:18:57;24.70;99.90
21559;DHT22;10940;48.890;8.240;2023-10-08T13:21:25;24.80;99.90
21559;DHT22;10940;48.890;8.240;2023-10-08T13:23:51;24.80;99.90
21559;DHT22;10940;48.890;8.240;2023-10-08T13:26:17;24.80;99.90
21559;DHT22;10940;48.890;8.240;2023-10-08T13:28:43;24.80;99.90
21559;DHT22;10940;48.890;8.240;2023-10-08T13:31:10;24.80;99.90
21559;DHT22;10940;48.890;8.240;2023-10-08T13:33:41;24.80;99.90
21559;DHT22;10940;48.890;8.240;2023-10-08T13:36:14;24.90;99.90
21559;DHT22;10940;48.890;8.240;2023-10-08T13:38:40;24.90;99.90
21559;DHT22;10940;48.890;8.240;2023-10-08T13:41:07;24.90;99.90
21559;DHT22;10940;48.890;8.240;2023-10-08T13:43:45;24.90;99.90
21559;DHT22;10940;48.890;8.240;2023-10-08T13:46:15;24.90;99.90
21559;DHT22;10940;48.890;8.240;2023-10-08T13:48:43;25.00;99.90
21559;DHT22;10940;48.890;8.240;2023-10-08T13:51:14;25.00;99.90
21559;DHT22;10940;48.890;8.240;2023-10-08T13:53:41;25.00;99.90
21559;DHT22;10940;48.890;8.240;2023-10-08T13:56:10;25.00;99.90
21559;DHT22;10940;48.890;8.240;2023-10-08T13:58:37;25.00;99.90
21559;DHT22;10940;48.890;8.240;2023-10-08T14:01:11;25.00;99.90
21559;DHT22;10940;48.890;8.240;2023-10-08T14:03:49;24.90;99.90
21559;DHT22;10940;48.890;8.240;2023-10-08T14:06:19;25.00;99.90
21559;DHT22;10940;48.890;8.240;2023-10-08T14:08:46;25.00;99.90
21559;DHT22;10940;48.890;8.240;2023-10-08T14:11:23;25.00;99.90
21559;DHT22;10940;48.890;8.240;2023-10-08T14:13:52;24.90;99.90
21559;DHT22;10940;48.890;8.240;2023-10-08T14:16:19;25.00;99.90
21559;DHT22;10940;48.890;8.240;2023-10-08T14:18:50;25.00;99.90
21559;DHT22;10940;48.890;8.240;2023-10-08T14:21:22;25.00;99.90
21559;DHT22;10940;48.890;8.240;2023-10-08T14:23:56;25.00;99.90
21559;DHT22;10940;48.890;8.240;2023-10-08T14:26:22;25.10;99.90
21559;DHT22;10940;48.890;8.240;2023-10-08T14:28:49;25.10;99.90
21559;DHT22;10940;48.890;8.240;2023-10-08T14:31:20;25.10;99.90
21559;DHT22;10940;48.890;8.240;2023-10-08T14:33:48;25.10;99.90
21559;DHT22;10940;48.890;8.240;2023-10-08T14:36:24;25.10;99.90
21559;DHT22;10940;48.890;8.240;2023-10-08T14:39:09;25.10;99.90
21559;DHT22;10940;48.890;8.240;2023-10-08T14:41:53;25.10;99.90
21559;DHT22;10940;48.890;8.240;2023-10-08T14:44:45;25.00;99.90
21559;DHT22;10940;48.890;8.240;2023-10-08T14:47:17;25.00;99.90
21559;DHT22;10940;48.890;8.240;2023-10-08T14:49:47;25.00;99.90
21559;DHT22;10940;48.890;8.240;2023-10-08T14:52:13;24.90;99.90
21559;DHT22;10940;48.890;8.240;2023-10-08T14:54:38;24.90;99.90
21559;DHT22;10940;48.890;8.240;2023-10-08T14:57:05;24.80;99.90
21559;DHT22;10940;48.890;8.240;2023-10-08T14:59:31;24.70;99.90
21559;DHT22;10940;48.890;8.240;2023-10-08T15:01:57;24.70;99.90
21559;DHT22;10940;48.890;8.240;2023-10-08T15:04:24;24.60;99.90
21559;DHT22;10940;48.890;8.240;2023-10-08T15:06:51;24.50;99.90
21559;DHT22;10940;48.890;8.240;2023-10-08T15:09:17;24.50;99.90
21559;DHT22;10940;48.890;8.240;2023-10-08T15:11:53;24.40;99.90
21559;DHT22;10940;48.890;8.240;2023-10-08T15:14:19;24.50;99.90
21559;DHT22;10940;48.890;8.240;2023-10-08T15:16:46;24.50;99.90
21559;DHT22;10940;48.890;8.240;2023-10-08T15:19:21;24.50;99.90
21559;DHT22;10940;48.890;8.240;2023-10-08T15:21:51;24.50;99.90
21559;DHT22;10940;48.890;8.240;2023-10-08T15:24:20;24.50;99.90
21559;DHT22;10940;48.890;8.240;2023-10-08T15:26:54;24.50;99.90
21559;DHT22;10940;48.890;8.240;2023-10-08T15:29:20;24.50;99.90
21559;DHT22;10940;48.890;8.240;2023-10-08T15:31:50;24.40;99.90
21559;DHT22;10940;48.890;8.240;2023-10-08T15:34:17;24.40;99.90
21559;DHT22;10940;48.890;8.240;2023-10-08T15:36:42;24.30;99.90
21559;DHT22;10940;48.890;8.240;2023-10-08T15:39:08;24.30;99.90
21559;DHT22;10940;48.890;8.240;2023-10-08T15:41:51;24.30;99.90
21559;DHT22;10940;48.890;8.240;2023-10-08T15:44:20;24.20;99.90
21559;DHT22;10940;48.890;8.240;2023-10-08T15:46:49;24.10;99.90
21559;DHT22;10940;48.890;8.240;2023-10-08T15:49:17;24.10;99.90
21559;DHT22;10940;48.890;8.240;2023-10-08T15:51:45;24.00;99.90
21559;DHT22;10940;48.890;8.240;2023-10-08T15:54:12;23.90;99.90
21559;DHT22;10940;48.890;8.240;2023-10-08T15:56:37;23.90;99.90
21559;DHT22;10940;48.890;8.240;2023-10-08T15:59:03;23.80;99.90
21559;DHT22;10940;48.890;8.240;2023-10-08T16:01:29;23.70;99.90